Time;durP1;ratioP1;P1;durP2;ratioP2;P2;SDS_P1;SDS_P2;PMS_P1;PMS_P2;Temp;Humidity;BMP_temperature;BMP_pressure;BME280_temperature;BME280_humidity;BME280_pressure;Samples;Min_cycle;Max_cycle;Signal;HPM_P1;HPM_P2
2022/09/07 00:01:40;;;;;;;4.67;1.17;;;16.60;36.30;;;;;;5039158;28;20186;-89
2022/09/07 00:04:08;;;;;;;0.93;0.70;;;16.50;99.90;;;;;;5039056;28;20841;-88
2022/09/07 00:06:34;;;;;;;2.80;1.00;;;16.50;99.90;;;;;;5038916;28;20168;-89
2022/09/07 00:09:00;;;;;;;1.90;0.77;;;16.50;99.90;;;;;;5038933;28;20454;-93
2022/09/07 00:11:26;;;;;;;1.13;0.50;;;16.40;1.00;;;;;;5038822;28;20229;-88
2022/09/07 00:13:53;;;;;;;1.90;0.80;;;16.40;1.00;;;;;;5039037;28;20787;-88
2022/09/07 00:16:21;;;;;;;1.40;0.80;;;16.30;1.00;;;;;;5038695;28;20498;-89
2022/09/07 00:18:48;;;;;;;1.37;0.50;;;16.20;99.90;;;;;;5038940;28;20421;-90
2022/09/07 00:21:15;;;;;;;2.30;0.87;;;16.10;99.90;;;;;;5038595;28;20753;-88
2022/09/07 00:23:41;;;;;;;2.50;0.77;;;16.10;1.00;;;;;;5038700;28;20964;-89
2022/09/07 00:26:10;;;;;;;1.47;0.70;;;16.10;1.00;;;;;;5038631;28;20434;-89
2022/09/07 00:28:36;;;;;;;3.50;0.60;;;16.00;1.00;;;;;;5056723;28;20184;-89
2022/09/07 00:31:02;;;;;;;1.80;0.40;;;16.00;99.90;;;;;;5039064;28;20920;-90
2022/09/07 00:33:28;;;;;;;0.67;0.30;;;16.00;1.00;;;;;;5038909;28;20438;-90
2022/09/07 00:35:54;;;;;;;1.60;0.60;;;16.10;44.70;;;;;;5056546;28;20417;-89
2022/09/07 00:38:19;;;;;;;1.13;0.50;;;16.10;1.00;;;;;;5038687;28;20271;-90
2022/09/07 00:40:45;;;;;;;1.07;0.47;;;16.10;1.00;;;;;;5038580;28;20187;-94
2022/09/07 00:43:28;;;;;;;2.50;0.87;;;16.10;1.00;;;;;;5038812;28;20176;-91
2022/09/07 00:45:53;;;;;;;1.23;0.30;;;16.10;1.00;;;;;;5056453;28;20184;-89
2022/09/07 00:48:21;;;;;;;1.90;0.40;;;16.10;1.00;;;;;;5038240;28;20407;-88
2022/09/07 00:50:54;;;;;;;0.90;0.50;;;16.10;1.00;;;;;;5055932;28;20180;-88
2022/09/07 00:53:28;;;;;;;1.73;0.83;;;16.10;99.90;;;;;;5056194;28;20418;-89
2022/09/07 00:55:55;;;;;;;0.93;0.30;;;16.00;99.90;;;;;;5056042;28;20422;-88
2022/09/07 00:58:22;;;;;;;1.57;0.83;;;16.10;99.90;;;;;;5038123;28;21021;-89
2022/09/07 01:00:49;;;;;;;0.83;0.53;;;16.10;1.00;;;;;;5038249;28;20780;-89
2022/09/07 01:03:18;;;;;;;1.33;0.87;;;16.10;1.00;;;;;;5056206;28;20414;-88
2022/09/07 01:05:54;;;;;;;2.13;0.60;;;16.20;1.00;;;;;;5056067;28;20434;-90
2022/09/07 01:08:20;;;;;;;1.70;0.70;;;16.10;99.90;;;;;;5056749;28;20446;-88
2022/09/07 01:10:52;;;;;;;1.03;0.80;;;16.10;1.00;;;;;;5037968;28;20471;-89
2022/09/07 01:13:18;;;;;;;2.20;0.97;;;16.10;1.00;;;;;;5055161;28;20426;-89
2022/09/07 01:16:10;;;;;;;1.20;0.67;;;16.00;99.90;;;;;;5037685;28;20430;-88
2022/09/07 01:19:05;;;;;;;1.33;0.90;;;16.00;99.90;;;;;;5055854;28;20179;-91
2022/09/07 01:21:52;;;;;;;1.70;0.40;;;16.00;99.90;;;;;;5053938;28;20462;-88
2022/09/07 01:24:33;;;;;;;1.13;0.50;;;16.00;42.70;;;;;;5055279;28;20470;-88
2022/09/07 01:27:41;;;;;;;2.70;0.63;;;16.00;99.90;;;;;;5037187;28;20953;-88
2022/09/07 01:30:13;;;;;;;1.50;0.90;;;16.00;1.00;;;;;;5055300;28;20422;-88
2022/09/07 01:33:15;;;;;;;1.07;0.50;;;16.00;1.00;;;;;;5037514;28;20453;-88
2022/09/07 01:36:09;;;;;;;1.33;0.50;;;16.10;93.20;;;;;;5054708;28;20775;-88
2022/09/07 01:38:46;;;;;;;1.50;1.07;;;16.00;99.90;;;;;;5054913;28;20415;-88
2022/09/07 01:41:42;;;;;;;1.00;0.50;;;16.10;1.00;;;;;;5054553;28;20420;-88
2022/09/07 01:44:33;;;;;;;1.03;0.50;;;16.10;1.00;;;;;;5070731;28;20479;-88
2022/09/07 01:47:17;;;;;;;1.97;0.80;;;16.10;1.00;;;;;;5036988;28;20423;-90
2022/09/07 01:49:59;;;;;;;3.63;0.43;;;16.10;1.00;;;;;;5054483;28;20442;-88
2022/09/07 01:52:55;;;;;;;1.47;1.03;;;16.10;1.00;;;;;;5036945;28;20462;-88
2022/09/07 01:55:29;;;;;;;1.57;0.63;;;16.10;99.90;;;;;;5054567;28;20821;-89
2022/09/07 01:58:10;;;;;;;1.30;0.70;;;16.10;1.00;;;;;;5054749;28;20405;-89
2022/09/07 02:00:40;;;;;;;1.37;0.80;;;16.10;99.90;;;;;;5054843;28;20412;-89
2022/09/07 02:03:10;;;;;;;2.97;1.00;;;16.10;1.00;;;;;;5070446;28;20544;-89
2022/09/07 02:05:47;;;;;;;1.20;0.50;;;16.10;1.00;;;;;;5036502;28;20509;-88
2022/09/07 02:08:30;;;;;;;1.60;0.60;;;16.10;99.90;;;;;;5054342;28;20465;-88
2022/09/07 02:11:02;;;;;;;1.37;1.07;;;16.10;1.00;;;;;;5036556;28;20510;-89
2022/09/07 02:13:40;;;;;;;1.60;0.90;;;16.10;1.00;;;;;;5054499;28;21112;-90
2022/09/07 02:16:14;;;;;;;0.80;0.50;;;16.10;99.90;;;;;;5036016;28;20562;-89
2022/09/07 02:18:46;;;;;;;3.10;1.03;;;16.10;99.90;;;;;;5036766;28;20782;-89
2022/09/07 02:21:16;;;;;;;1.33;0.63;;;16.10;99.90;;;;;;5036530;28;20427;-88
2022/09/07 02:23:49;;;;;;;1.30;0.67;;;16.10;99.90;;;;;;5036667;28;20965;-88
2022/09/07 02:26:19;;;;;;;1.80;0.80;;;16.20;99.90;;;;;;5036668;28;20419;-90
2022/09/07 02:28:45;;;;;;;1.73;0.93;;;16.10;99.90;;;;;;5036559;28;20472;-89
2022/09/07 02:31:17;;;;;;;1.60;0.87;;;16.10;99.90;;;;;;5036582;28;20434;-89
2022/09/07 02:33:43;;;;;;;1.93;0.47;;;16.10;1.00;;;;;;5036452;28;20427;-90
2022/09/07 02:36:13;;;;;;;1.53;0.80;;;16.00;1.00;;;;;;5036435;28;20915;-89
2022/09/07 02:38:39;;;;;;;0.97;0.50;;;16.00;1.00;;;;;;5054211;28;20168;-89
2022/09/07 02:41:05;;;;;;;2.77;0.93;;;16.00;1.00;;;;;;5036376;28;21001;-88
2022/09/07 02:43:31;;;;;;;2.10;0.57;;;16.00;1.00;;;;;;5036306;28;20176;-89
2022/09/07 02:46:16;;;;;;;2.47;1.50;;;16.00;1.00;;;;;;5069420;28;20532;-89
2022/09/07 02:49:04;;;;;;;3.23;0.80;;;16.00;1.00;;;;;;5052476;28;20419;-89
2022/09/07 02:51:39;;;;;;;1.30;0.70;;;16.00;1.00;;;;;;5052753;28;20513;-89
2022/09/07 02:54:42;;;;;;;1.73;0.67;;;16.00;1.00;;;;;;5052436;28;20413;-87
2022/09/07 02:57:35;;;;;;;3.03;0.93;;;15.90;1.00;;;;;;5036017;28;20421;-88
2022/09/07 03:00:11;;;;;;;1.43;0.50;;;15.80;1.00;;;;;;5052566;28;20434;-89
2022/09/07 03:03:21;;;;;;;1.17;0.50;;;15.80;99.90;;;;;;5035961;28;20409;-89
2022/09/07 03:05:59;;;;;;;2.73;0.70;;;15.90;13.30;;;;;;5030419;28;20445;-89
2022/09/07 03:08:34;;;;;;;1.23;0.47;;;15.90;1.00;;;;;;5053565;28;20905;-89
2022/09/07 03:11:00;;;;;;;1.37;0.63;;;15.90;62.20;;;;;;5035798;28;20430;-90
2022/09/07 03:13:29;;;;;;;3.40;1.03;;;15.90;99.90;;;;;;5036048;28;20418;-90
2022/09/07 03:15:55;;;;;;;1.40;0.30;;;15.90;75.50;;;;;;5035957;28;20218;-90
2022/09/07 03:18:21;;;;;;;1.67;0.93;;;15.80;99.90;;;;;;5054092;28;20468;-90
2022/09/07 03:20:47;;;;;;;2.23;1.37;;;15.80;99.90;;;;;;5053658;28;20417;-89
2022/09/07 03:23:13;;;;;;;0.97;0.60;;;15.80;99.90;;;;;;5036015;28;20426;-89
2022/09/07 03:25:38;;;;;;;1.40;0.80;;;15.80;1.00;;;;;;5036276;28;20220;-90
2022/09/07 03:28:04;;;;;;;1.70;0.77;;;15.70;1.00;;;;;;5037720;28;20414;-91
2022/09/07 03:30:30;;;;;;;3.87;0.90;;;15.70;99.90;;;;;;5040388;28;20644;-91
2022/09/07 03:32:55;;;;;;;1.60;0.93;;;15.70;99.90;;;;;;5040379;28;20535;-92
2022/09/07 03:35:21;;;;;;;1.80;0.63;;;15.70;99.90;;;;;;5040149;28;20175;-92
2022/09/07 03:37:46;;;;;;;1.57;0.70;;;15.70;99.90;;;;;;5040476;28;20183;-90
2022/09/07 03:40:13;;;;;;;2.83;0.80;;;15.70;1.00;;;;;;5040294;28;20175;-92
2022/09/07 03:42:38;;;;;;;2.13;0.50;;;15.70;1.00;;;;;;5040394;28;20215;-90
2022/09/07 03:45:06;;;;;;;1.10;0.70;;;15.70;99.90;;;;;;5039854;28;20514;-91
2022/09/07 03:47:38;;;;;;;2.13;1.17;;;15.60;99.90;;;;;;5039914;28;20180;-91
2022/09/07 03:50:04;;;;;;;3.43;1.20;;;15.60;1.00;;;;;;5039793;28;20429;-90
2022/09/07 03:52:30;;;;;;;2.40;1.37;;;15.60;34.10;;;;;;5039857;28;20922;-89
2022/09/07 03:54:55;;;;;;;3.03;1.07;;;15.50;1.00;;;;;;5039277;28;20430;-89
2022/09/07 03:57:21;;;;;;;1.80;1.10;;;15.50;1.00;;;;;;5038874;28;20620;-88
2022/09/07 03:59:48;;;;;;;1.93;1.23;;;15.60;99.90;;;;;;5038828;28;20182;-89
2022/09/07 04:02:14;;;;;;;1.60;1.20;;;15.60;99.90;;;;;;5056901;28;20255;-88
2022/09/07 04:04:47;;;;;;;1.23;0.83;;;15.60;1.00;;;;;;5048374;28;21036;-88
2022/09/07 04:07:14;;;;;;;2.50;1.53;;;15.70;1.00;;;;;;5038958;28;20178;-88
2022/09/07 04:09:40;;;;;;;1.87;0.50;;;15.60;99.90;;;;;;5048698;28;20415;-88
2022/09/07 04:12:05;;;;;;;1.60;0.70;;;15.60;99.90;;;;;;5038934;28;20442;-87
2022/09/07 04:14:31;;;;;;;2.03;1.07;;;15.60;99.90;;;;;;5038590;28;20937;-88
2022/09/07 04:16:56;;;;;;;1.20;0.60;;;15.70;1.00;;;;;;5056152;28;20226;-88
2022/09/07 04:19:22;;;;;;;2.17;0.80;;;15.70;13.50;;;;;;5038414;28;20225;-90
2022/09/07 04:21:47;;;;;;;2.20;1.17;;;15.60;1.00;;;;;;5039243;28;20174;-90
2022/09/07 04:24:14;;;;;;;3.27;1.23;;;15.60;1.00;;;;;;5039070;28;20212;-90
2022/09/07 04:26:42;;;;;;;2.10;1.03;;;15.60;64.70;;;;;;5031120;28;20177;-90
2022/09/07 04:29:10;;;;;;;2.60;0.90;;;15.60;99.90;;;;;;5039067;28;20472;-89
2022/09/07 04:31:36;;;;;;;1.40;0.80;;;15.60;1.00;;;;;;5038664;28;20829;-89
2022/09/07 04:34:05;;;;;;;2.50;0.90;;;15.70;99.90;;;;;;5038633;28;20425;-91
2022/09/07 04:36:31;;;;;;;2.33;1.40;;;15.70;1.00;;;;;;5038994;28;20171;-91
2022/09/07 04:39:00;;;;;;;2.20;0.80;;;15.80;99.90;;;;;;5038754;28;20443;-91
2022/09/07 04:41:27;;;;;;;2.23;1.40;;;15.80;99.90;;;;;;5027338;28;20422;-89
2022/09/07 04:43:57;;;;;;;1.50;0.60;;;15.80;99.90;;;;;;5018727;28;20455;-88
2022/09/07 04:46:32;;;;;;;2.77;1.30;;;15.80;1.00;;;;;;5018631;28;20918;-90
2022/09/07 04:49:00;;;;;;;1.80;0.80;;;15.80;1.00;;;;;;5035949;28;20414;-92
2022/09/07 04:51:28;;;;;;;1.90;0.80;;;15.90;99.90;;;;;;5035935;28;20478;-89
2022/09/07 04:53:55;;;;;;;1.80;1.00;;;15.90;99.90;;;;;;5018370;28;20415;-88
2022/09/07 04:56:21;;;;;;;1.87;1.37;;;15.90;99.90;;;;;;5028772;28;20772;-89
2022/09/07 04:58:47;;;;;;;3.30;1.43;;;15.90;99.90;;;;;;5070873;28;20449;-91
2022/09/07 05:01:16;;;;;;;1.87;0.97;;;15.90;99.90;;;;;;5027549;28;20431;-90
2022/09/07 05:03:41;;;;;;;2.73;1.13;;;15.90;99.90;;;;;;5017505;28;20455;-89
2022/09/07 05:06:08;;;;;;;1.63;1.03;;;16.00;99.90;;;;;;5018012;28;20430;-89
2022/09/07 05:08:38;;;;;;;2.97;1.33;;;15.90;1.00;;;;;;5017457;28;20216;-88
2022/09/07 05:11:04;;;;;;;3.60;1.40;;;15.90;7.80;;;;;;5017770;28;20830;-88
2022/09/07 05:13:30;;;;;;;2.40;1.20;;;15.90;99.90;;;;;;5036003;28;20447;-89
2022/09/07 05:15:56;;;;;;;6.50;1.40;;;15.90;1.00;;;;;;5017655;28;20246;-87
2022/09/07 05:18:22;;;;;;;1.20;0.87;;;15.90;99.90;;;;;;5017664;28;20945;-91
2022/09/07 05:20:47;;;;;;;2.60;1.30;;;15.90;99.90;;;;;;5035617;28;20466;-90
2022/09/07 05:23:13;;;;;;;1.80;0.80;;;15.90;1.00;;;;;;5035845;28;20254;-91
2022/09/07 05:25:45;;;;;;;1.60;0.83;;;15.80;99.90;;;;;;5031094;28;20667;-90
2022/09/07 05:28:12;;;;;;;2.27;1.30;;;15.70;99.90;;;;;;5022687;28;20636;-93
2022/09/07 05:30:38;;;;;;;2.13;0.73;;;15.60;1.00;;;;;;5033332;28;20426;-91
2022/09/07 05:33:06;;;;;;;1.60;1.37;;;15.50;1.00;;;;;;5038084;28;20771;-92
2022/09/07 05:35:32;;;;;;;2.10;0.77;;;15.50;99.90;;;;;;5037480;28;20790;-92
2022/09/07 05:37:57;;;;;;;3.53;1.37;;;15.50;1.00;;;;;;5038168;28;20406;-91
2022/09/07 05:40:23;;;;;;;3.03;1.17;;;15.50;1.00;;;;;;5038054;28;20178;-91
2022/09/07 05:42:48;;;;;;;1.70;0.87;;;15.50;99.90;;;;;;5037973;28;20183;-91
2022/09/07 05:45:14;;;;;;;3.43;1.50;;;15.50;1.00;;;;;;5037703;28;20221;-89
2022/09/07 05:47:42;;;;;;;2.30;1.10;;;15.40;99.90;;;;;;5037957;28;20177;-91
2022/09/07 05:50:08;;;;;;;2.70;1.17;;;15.40;1.00;;;;;;5037238;28;20207;-91
2022/09/07 05:52:35;;;;;;;2.93;1.50;;;15.40;1.00;;;;;;5037965;28;20458;-91
2022/09/07 05:55:01;;;;;;;3.17;1.47;;;15.40;1.00;;;;;;5037380;28;20437;-90
2022/09/07 05:57:26;;;;;;;2.30;1.03;;;15.40;1.00;;;;;;5037358;28;20459;-90
2022/09/07 05:59:54;;;;;;;3.37;0.83;;;15.40;1.00;;;;;;5037353;28;20427;-91
2022/09/07 06:02:20;;;;;;;1.70;0.70;;;15.40;1.00;;;;;;5037610;28;20252;-92
2022/09/07 06:04:46;;;;;;;1.83;1.07;;;15.30;1.00;;;;;;5037180;28;20473;-89
2022/09/07 06:07:12;;;;;;;3.03;1.60;;;15.40;1.00;;;;;;5054973;28;20190;-92
2022/09/07 06:09:38;;;;;;;1.90;0.73;;;15.40;1.00;;;;;;5037060;28;20790;-89
2022/09/07 06:12:07;;;;;;;2.20;1.10;;;15.40;99.90;;;;;;5037330;28;20420;-89
2022/09/07 06:14:32;;;;;;;2.30;1.23;;;15.30;99.90;;;;;;5037355;28;20500;-91
2022/09/07 06:16:58;;;;;;;2.53;1.23;;;15.20;1.00;;;;;;5037316;28;20627;-90
2022/09/07 06:19:23;;;;;;;2.70;1.13;;;15.20;1.00;;;;;;5036952;28;20945;-91
2022/09/07 06:21:49;;;;;;;0.87;0.63;;;15.10;1.00;;;;;;5037364;28;20527;-93
2022/09/07 06:24:14;;;;;;;2.07;1.13;;;15.00;1.00;;;;;;5037721;28;20201;-91
2022/09/07 06:26:40;;;;;;;2.03;1.23;;;15.00;1.00;;;;;;5041850;28;20207;-89
2022/09/07 06:29:07;;;;;;;2.10;0.83;;;15.00;92.90;;;;;;5039913;28;20180;-90
2022/09/07 06:31:33;;;;;;;1.60;1.20;;;15.00;99.90;;;;;;5036977;28;20171;-91
2022/09/07 06:33:59;;;;;;;1.37;1.20;;;14.90;57.00;;;;;;5036612;28;20422;-90
2022/09/07 06:36:28;;;;;;;1.70;0.70;;;15.00;76.80;;;;;;5054295;28;20298;-88
2022/09/07 06:38:57;;;;;;;3.00;1.17;;;15.00;99.90;;;;;;5054301;28;20468;-89
2022/09/07 06:41:28;;;;;;;2.13;1.10;;;15.00;99.90;;;;;;5054243;28;20437;-89
2022/09/07 06:43:55;;;;;;;3.30;1.70;;;15.00;99.90;;;;;;5054127;28;20451;-88
2022/09/07 06:46:21;;;;;;;3.03;1.57;;;14.90;99.90;;;;;;5036480;28;20432;-88
2022/09/07 06:48:47;;;;;;;2.60;1.60;;;14.90;99.90;;;;;;5036128;28;20426;-88
2022/09/07 06:51:17;;;;;;;2.23;1.50;;;14.90;99.90;;;;;;5054223;28;20415;-90
2022/09/07 06:53:43;;;;;;;3.13;1.13;;;14.90;99.90;;;;;;5036824;28;20627;-90
2022/09/07 06:56:11;;;;;;;4.53;1.60;;;15.00;99.90;;;;;;5036290;28;20419;-90
2022/09/07 06:58:37;;;;;;;2.60;1.50;;;15.00;99.90;;;;;;5036134;28;20311;-88
2022/09/07 07:01:08;;;;;;;2.33;1.63;;;14.90;99.90;;;;;;5052613;28;20510;-92
2022/09/07 07:03:35;;;;;;;3.17;1.30;;;15.00;99.90;;;;;;5054714;28;20176;-88
2022/09/07 07:06:01;;;;;;;3.30;1.17;;;14.90;99.90;;;;;;5057110;28;21164;-93
2022/09/07 07:08:27;;;;;;;3.07;1.37;;;14.90;99.90;;;;;;5040846;28;20450;-94
2022/09/07 07:10:53;;;;;;;3.50;2.10;;;15.00;99.90;;;;;;5037048;28;20459;-88
2022/09/07 07:13:18;;;;;;;2.33;1.60;;;15.00;99.90;;;;;;5054170;28;20167;-90
2022/09/07 07:15:47;;;;;;;6.73;2.00;;;15.00;99.90;;;;;;5036183;28;20230;-90
2022/09/07 07:18:13;;;;;;;3.60;2.20;;;15.10;99.90;;;;;;5054060;28;20411;-92
2022/09/07 07:20:40;;;;;;;1.77;1.37;;;15.00;99.90;;;;;;5036458;28;20429;-92
2022/09/07 07:23:07;;;;;;;2.23;1.30;;;15.10;99.90;;;;;;5036527;28;20179;-91
2022/09/07 07:25:36;;;;;;;4.23;1.83;;;15.00;99.90;;;;;;5035738;28;20986;-90
2022/09/07 07:28:03;;;;;;;2.30;1.03;;;15.00;99.90;;;;;;5035656;28;20451;-89
2022/09/07 07:30:32;;;;;;;2.30;1.40;;;15.00;99.90;;;;;;5036083;28;20427;-91
2022/09/07 07:32:58;;;;;;;2.37;1.27;;;15.10;99.90;;;;;;5036509;28;20477;-89
2022/09/07 07:35:23;;;;;;;1.70;1.20;;;15.20;99.90;;;;;;5036421;28;20427;-92
2022/09/07 07:37:52;;;;;;;2.77;2.20;;;15.10;99.90;;;;;;5036465;28;20195;-93
2022/09/07 07:40:18;;;;;;;4.03;2.20;;;15.20;99.90;;;;;;5035909;28;20258;-88
2022/09/07 07:42:44;;;;;;;2.17;1.50;;;15.10;99.90;;;;;;5035823;28;20496;-89
2022/09/07 07:45:10;;;;;;;3.30;1.23;;;15.10;99.90;;;;;;5036026;28;20211;-91
2022/09/07 07:47:36;;;;;;;4.53;2.17;;;15.00;99.90;;;;;;5035861;28;20176;-93
2022/09/07 07:50:03;;;;;;;2.30;1.70;;;14.90;99.90;;;;;;5036056;28;20418;-86
2022/09/07 07:52:37;;;;;;;5.03;1.80;;;14.80;99.90;;;;;;5036087;28;20414;-89
2022/09/07 07:55:03;;;;;;;3.73;1.53;;;14.80;99.90;;;;;;5036816;28;20501;-93
2022/09/07 07:57:29;;;;;;;5.10;2.30;;;14.70;99.90;;;;;;5039138;28;20411;-94
2022/09/07 07:59:55;;;;;;;3.63;1.63;;;14.60;99.90;;;;;;5041836;28;20514;-94
2022/09/07 08:02:20;;;;;;;4.07;1.80;;;14.60;99.90;;;;;;5042728;28;20444;-94
2022/09/07 08:04:49;;;;;;;4.53;2.27;;;14.70;99.90;;;;;;5040746;28;20215;-93
2022/09/07 08:07:15;;;;;;;3.20;2.00;;;14.80;99.90;;;;;;5040191;28;20176;-95
2022/09/07 08:09:42;;;;;;;7.67;2.23;;;14.70;99.90;;;;;;5038522;28;20456;-94
2022/09/07 08:12:11;;;;;;;3.53;2.30;;;14.70;99.90;;;;;;5038399;28;20415;-94
2022/09/07 08:14:39;;;;;;;2.40;2.20;;;14.70;99.90;;;;;;5040660;28;20424;-94
2022/09/07 08:17:10;;;;;;;2.23;1.30;;;14.60;99.90;;;;;;5040914;28;20470;-94
2022/09/07 08:19:36;;;;;;;1.70;1.10;;;14.50;99.90;;;;;;5040717;28;20421;-95
2022/09/07 08:22:02;;;;;;;3.40;1.23;;;14.60;99.90;;;;;;5041143;28;20414;-92
2022/09/07 08:24:31;;;;;;;2.30;1.93;;;14.60;99.90;;;;;;5042388;28;20455;-94
2022/09/07 08:26:56;;;;;;;6.63;1.57;;;14.70;99.90;;;;;;5040979;28;20916;-95
2022/09/07 08:29:25;;;;;;;2.97;1.63;;;14.70;99.90;;;;;;5040357;28;20420;-94
2022/09/07 08:31:51;;;;;;;2.87;1.93;;;14.70;99.90;;;;;;5045689;28;20176;-93
2022/09/07 08:34:16;;;;;;;4.33;2.10;;;14.80;99.90;;;;;;5044385;28;20414;-91
2022/09/07 08:36:42;;;;;;;2.70;1.80;;;14.80;99.90;;;;;;5039967;28;20210;-94
2022/09/07 08:39:08;;;;;;;3.47;2.13;;;14.90;99.90;;;;;;5039895;28;20165;-93
2022/09/07 08:41:53;;;;;;;3.10;1.87;;;15.10;99.90;;;;;;5039823;28;20434;-94
2022/09/07 08:44:36;;;;;;;4.53;1.50;;;15.10;99.90;;;;;;5039542;28;20211;-95
2022/09/07 08:47:33;;;;;;;3.20;1.40;;;15.10;99.90;;;;;;5055927;28;20559;-93
2022/09/07 08:50:09;;;;;;;3.20;1.63;;;15.20;99.90;;;;;;5055707;28;20430;-95
2022/09/07 08:53:07;;;;;;;2.50;1.83;;;15.30;99.90;;;;;;5039167;28;20756;-95
2022/09/07 08:55:39;;;;;;;6.00;2.00;;;15.50;99.90;;;;;;5072559;28;20427;-94
2022/09/07 08:58:19;;;;;;;3.43;2.13;;;15.80;99.90;;;;;;5039553;28;20479;-94
2022/09/07 09:00:47;;;;;;;2.03;1.83;;;16.00;99.90;;;;;;5039408;28;20421;-94
2022/09/07 09:03:24;;;;;;;3.33;1.50;;;16.30;99.90;;;;;;5038934;28;20441;-95
2022/09/07 09:06:17;;;;;;;2.17;1.97;;;16.60;99.90;;;;;;5039072;28;20797;-94
2022/09/07 09:08:52;;;;;;;3.07;2.00;;;16.70;99.90;;;;;;5039171;28;20773;-94
2022/09/07 09:11:31;;;;;;;1.80;1.13;;;16.90;99.90;;;;;;5039193;28;20416;-93
2022/09/07 09:14:01;;;;;;;2.00;1.47;;;17.00;99.90;;;;;;5039304;28;20423;-93
2022/09/07 09:16:41;;;;;;;3.20;1.60;;;16.90;99.90;;;;;;5038786;28;20460;-95
2022/09/07 09:19:22;;;;;;;5.80;1.90;;;17.00;99.90;;;;;;5038721;28;20424;-95
2022/09/07 09:21:51;;;;;;;2.03;1.50;;;17.30;1.00;;;;;;5038840;28;20916;-93
2022/09/07 09:24:18;;;;;;;3.27;1.23;;;17.90;1.00;;;;;;5039107;28;20464;-93
2022/09/07 09:26:53;;;;;;;3.03;1.57;;;18.30;92.10;;;;;;5039524;28;20429;-95
2022/09/07 09:29:20;;;;;;;2.37;1.83;;;18.20;99.90;;;;;;5039411;28;20522;-94
2022/09/07 09:31:46;;;;;;;6.10;1.80;;;18.00;1.00;;;;;;5038811;28;20466;-94
2022/09/07 09:34:17;;;;;;;5.30;2.17;;;17.90;56.10;;;;;;5038567;28;20782;-93
2022/09/07 09:36:45;;;;;;;1.70;1.13;;;18.00;99.90;;;;;;5039288;28;20188;-91
2022/09/07 09:39:37;;;;;;;2.90;1.60;;;18.30;1.00;;;;;;5038881;28;20420;-92
2022/09/07 09:42:15;;;;;;;3.00;1.17;;;18.60;1.00;;;;;;5039398;28;20462;-93
2022/09/07 09:44:42;;;;;;;2.77;1.30;;;19.20;99.90;;;;;;5040384;28;20465;-93
2022/09/07 09:47:20;;;;;;;1.43;1.17;;;20.10;1.00;;;;;;5040606;28;20422;-93
2022/09/07 09:49:46;;;;;;;2.00;1.40;;;19.90;99.90;;;;;;5039893;28;20434;-94
2022/09/07 09:52:18;;;;;;;5.83;1.63;;;20.10;99.90;;;;;;5041875;28;20423;-94
2022/09/07 09:54:49;;;;;;;3.57;1.43;;;20.20;99.90;;;;;;5042884;28;20232;-92
2022/09/07 09:57:45;;;;;;;2.50;2.10;;;21.30;20.00;;;;;;5041178;28;20438;-93
2022/09/07 10:00:16;;;;;;;4.00;2.10;;;20.30;99.90;;;;;;5042578;28;20424;-94
2022/09/07 10:02:57;;;;;;;2.97;2.10;;;20.10;99.90;;;;;;5043879;28;20422;-94
2022/09/07 10:05:39;;;;;;;3.20;2.30;;;20.10;1.00;;;;;;5040231;28;20982;-92
2022/09/07 10:08:27;;;;;;;3.50;2.20;;;20.00;37.50;;;;;;5040548;28;20424;-90
2022/09/07 10:11:01;;;;;;;2.70;1.80;;;20.30;1.00;;;;;;5034120;28;20410;-93
2022/09/07 10:13:45;;;;;;;4.00;2.70;;;20.20;1.00;;;;;;5043050;28;20417;-92
2022/09/07 10:16:10;;;;;;;2.30;1.60;;;20.80;99.90;;;;;;5039381;28;20452;-91
2022/09/07 10:18:53;;;;;;;3.40;1.97;;;22.10;1.00;;;;;;5039337;28;20430;-92
2022/09/07 10:21:23;;;;;;;3.40;2.17;;;23.70;99.90;;;;;;5040762;28;20178;-93
2022/09/07 10:23:56;;;;;;;3.00;2.43;;;23.90;53.90;;;;;;5042471;28;20507;-94
2022/09/07 10:26:30;;;;;;;2.00;1.70;;;23.70;56.50;;;;;;5062860;28;20430;-91
2022/09/07 10:29:16;;;;;;;3.20;2.90;;;23.30;43.70;;;;;;5058214;28;20427;-91
2022/09/07 10:32:06;;;;;;;2.80;2.07;;;23.60;59.10;;;;;;5058663;28;20423;-93
2022/09/07 10:35:17;;;;;;;2.53;1.50;;;24.40;42.00;;;;;;5056410;28;20411;-92
2022/09/07 10:38:02;;;;;;;3.60;3.30;;;25.10;27.20;;;;;;5038865;28;20433;-94
2022/09/07 10:40:33;;;;;;;6.03;2.60;;;24.20;5.30;;;;;;5044407;28;20455;-93
2022/09/07 10:43:45;;;;;;;3.43;2.40;;;24.40;11.30;;;;;;5041072;28;20506;-94
2022/09/07 10:46:34;;;;;;;3.20;2.43;;;24.90;37.20;;;;;;5054746;28;20420;-91
2022/09/07 10:49:22;;;;;;;2.93;2.60;;;25.20;11.40;;;;;;5057228;28;20419;-93
2022/09/07 10:52:08;;;;;;;3.43;2.07;;;25.60;9.60;;;;;;5037465;28;20501;-92
2022/09/07 10:54:48;;;;;;;2.40;2.20;;;25.80;11.10;;;;;;5055582;28;20459;-93
2022/09/07 10:57:32;;;;;;;3.10;2.60;;;25.80;18.50;;;;;;5055954;28;20505;-92
2022/09/07 11:00:07;;;;;;;6.57;2.40;;;25.10;1.00;;;;;;5038010;28;20424;-92
2022/09/07 11:02:52;;;;;;;3.33;2.33;;;25.40;4.60;;;;;;5055741;28;20424;-93
2022/09/07 11:05:39;;;;;;;3.67;3.30;;;25.50;1.20;;;;;;5037514;28;20412;-92
2022/09/07 11:08:33;;;;;;;4.20;2.73;;;25.80;1.00;;;;;;5056327;28;20428;-92
2022/09/07 11:11:09;;;;;;;3.50;2.63;;;26.10;1.00;;;;;;5037758;28;20424;-91
2022/09/07 11:13:38;;;;;;;2.73;2.53;;;26.40;1.00;;;;;;5053489;28;20410;-93
2022/09/07 11:16:14;;;;;;;3.00;2.03;;;26.30;1.00;;;;;;5036769;28;20463;-93
2022/09/07 11:18:54;;;;;;;1.97;1.50;;;26.20;2.80;;;;;;5036637;28;20923;-91
2022/09/07 11:21:29;;;;;;;2.70;2.50;;;26.50;1.00;;;;;;5055950;28;20408;-94
2022/09/07 11:23:58;;;;;;;2.70;2.30;;;26.20;1.00;;;;;;5037538;28;20615;-91
2022/09/07 11:26:28;;;;;;;2.20;1.77;;;26.30;1.00;;;;;;5036974;28;20504;-92
2022/09/07 11:28:59;;;;;;;2.43;2.23;;;26.80;5.60;;;;;;5054827;28;20808;-95
2022/09/07 11:31:42;;;;;;;5.73;2.83;;;27.10;1.00;;;;;;5036420;28;20942;-92
2022/09/07 11:34:11;;;;;;;2.80;2.10;;;26.80;1.00;;;;;;5037068;28;20464;-95
2022/09/07 11:36:48;;;;;;;2.50;2.00;;;26.30;1.00;;;;;;5055845;28;20551;-92
2022/09/07 11:39:25;;;;;;;2.70;2.20;;;26.20;1.00;;;;;;5054055;28;20918;-90
2022/09/07 11:42:04;;;;;;;2.27;2.07;;;26.40;1.00;;;;;;5036522;28;20520;-94
2022/09/07 11:44:39;;;;;;;3.57;1.93;;;26.10;1.00;;;;;;5036609;28;20416;-93
2022/09/07 11:47:15;;;;;;;1.90;1.70;;;26.10;1.00;;;;;;5056790;28;20433;-93
2022/09/07 11:49:40;;;;;;;2.40;2.20;;;25.70;1.00;;;;;;5039454;28;20443;-92
2022/09/07 11:52:14;;;;;;;1.97;1.80;;;25.70;1.00;;;;;;5042188;28;20416;-90
2022/09/07 11:54:56;;;;;;;2.67;1.90;;;24.90;1.00;;;;;;5058997;28;20263;-92
2022/09/07 11:57:43;;;;;;;2.67;2.20;;;24.90;1.00;;;;;;5040835;28;20419;-89
2022/09/07 12:00:16;;;;;;;2.53;2.27;;;24.90;1.00;;;;;;5041150;28;20932;-92
2022/09/07 12:03:03;;;;;;;3.33;2.57;;;25.40;8.50;;;;;;5040114;28;20459;-91
2022/09/07 12:05:46;;;;;;;4.10;2.33;;;25.30;1.00;;;;;;5058105;28;20443;-91
2022/09/07 12:08:46;;;;;;;2.40;2.20;;;25.40;2.30;;;;;;5058738;28;20466;-93
2022/09/07 12:11:45;;;;;;;2.77;1.90;;;25.20;1.00;;;;;;5056745;28;20424;-93
2022/09/07 12:14:22;;;;;;;4.40;1.90;;;25.50;3.30;;;;;;5056368;28;20460;-90
2022/09/07 12:17:09;;;;;;;3.50;3.20;;;25.40;1.00;;;;;;5037064;28;20471;-92
2022/09/07 12:19:35;;;;;;;3.17;2.77;;;25.40;1.00;;;;;;5038424;28;20401;-91
2022/09/07 12:22:00;;;;;;;2.90;2.17;;;25.40;1.00;;;;;;5019754;28;20436;-91
2022/09/07 12:24:32;;;;;;;2.77;2.57;;;25.20;2.70;;;;;;5021241;28;20288;-89
2022/09/07 12:27:18;;;;;;;4.00;2.87;;;26.30;1.70;;;;;;5037846;28;20213;-92
2022/09/07 12:29:44;;;;;;;2.77;2.57;;;26.30;1.00;;;;;;5009825;28;20493;-89
2022/09/07 12:32:09;;;;;;;2.93;2.40;;;26.20;1.00;;;;;;5020546;28;20827;-89
2022/09/07 12:34:35;;;;;;;2.63;2.40;;;26.70;1.00;;;;;;5019617;28;20469;-90
2022/09/07 12:37:24;;;;;;;2.63;2.27;;;27.40;1.00;;;;;;5035973;28;20182;-92
2022/09/07 12:40:10;;;;;;;3.40;3.10;;;27.50;1.00;;;;;;5037060;28;20526;-88
2022/09/07 12:42:35;;;;;;;2.73;2.53;;;27.00;1.00;;;;;;5019014;28;20425;-91
2022/09/07 12:45:40;;;;;;;3.40;3.00;;;27.40;1.00;;;;;;5037659;28;20413;-91
2022/09/07 12:48:15;;;;;;;4.33;2.63;;;26.90;1.00;;;;;;4960912;28;20175;-90
2022/09/07 12:50:48;;;;;;;4.07;2.73;;;26.80;1.00;;;;;;4961792;28;20420;-91
2022/09/07 12:53:45;;;;;;;3.30;3.00;;;27.00;1.00;;;;;;4996721;28;20449;-95
2022/09/07 12:56:55;;;;;;;2.70;2.50;;;26.70;1.00;;;;;;5000102;28;20441;-92
2022/09/07 12:59:49;;;;;;;3.13;2.90;;;27.80;1.00;;;;;;5036379;28;20452;-94
2022/09/07 13:02:48;;;;;;;3.93;3.47;;;27.40;1.00;;;;;;5036478;28;20421;-91
2022/09/07 13:05:39;;;;;;;3.43;3.13;;;27.30;1.00;;;;;;5037187;28;20501;-91
2022/09/07 13:08:29;;;;;;;4.90;2.63;;;27.20;1.00;;;;;;5021955;28;20992;-93
2022/09/07 13:10:55;;;;;;;3.40;2.67;;;27.20;1.00;;;;;;5020377;28;20428;-95
2022/09/07 13:13:26;;;;;;;3.67;3.33;;;27.50;1.00;;;;;;5021582;28;20413;-93
2022/09/07 13:16:04;;;;;;;4.47;3.37;;;27.10;1.00;;;;;;5042513;28;20316;-91
2022/09/07 13:18:29;;;;;;;3.53;2.93;;;27.10;1.00;;;;;;5057606;28;20469;-94
2022/09/07 13:21:07;;;;;;;4.20;3.90;;;26.40;1.00;;;;;;5057523;28;20420;-91